Terminal Aerodrome Forecast
Issued by NWS Bismarck, ND

Home | Current Version | Previous Version | Graphics & Text | Print | Product List | Glossary On
Versions: 1 2 3 4 5 6 7 8 9 10 11 12 13
000
FTUS43 KBIS 201738
TAFBIS
TAF
KBIS 201738Z 2018/2118 14013KT P6SM SKC
     FM210500 16006KT P6SM SCT200
     FM210900 VRB04KT P6SM SCT140
     FM211100 14005KT P6SM SCT130
     FM211500 17008KT P6SM FEW045 SCT130=

USA.gov is the U.S. government's official web portal to all federal, state and local government web resources and services.